LiveATC.Net - Listen to live air traffic control over the Internet!


ICAO: EHMZ  IATA:   Airport: Midden-Zeeland Airport
City: Middelburg
Country: Netherlands   Continent: Europe
EHWO METAR Weather: EHWO 161625Z AUTO 30005KT 250V330 9999 OVC120 26/14 Q1009 BLU
EHMZ ADS-B Flight Tracking (ADSBExchange)
EHMZ Flight Activity (FlightAware)
EHMZ Webcam:  (Airport Webcams) 

EHMZ
Feed Status: UP   Listeners: 0
Listen in your browser - HTML5 player (in browser, HTML5)
Click here to listen with your own player (launches your MP3 player)
Archive Access: EHMZ
FacilityFrequency
Midden-Zeeland Radio119.255

NOTICE

Unauthorized use prohibited. See LiveATC.net Terms of Service


Airport/ARTCC Code
Frequency Search
(e.g., 124.400, 128.75)
Site-wide search
 


Browse Feeds
Top 50 Feeds
HF Oceanic Feeds
Coverage Map
Bad Weather Areas

LiveATC FAQ
Offer LiveATC feed
Contact LiveATC.net
Press Inquiries

LiveATC on iPhone
LiveATC on Android

LiveATC Mobile
(Mobile browser)

ATC Audio Archives
Interesting Recordings

LiveATC Forums


Home Page
About LiveATC.net


Terms of Use
Privacy Policy

AIRMETs/SIGMETs

FAA Airport Status
NAS Status
Arrival Demand


Server Software By:
Icecast.org
Liquidsoap